Main page
METAR-TAF:

METAR-TAF

Airports :

Cascais Municipal Aerodrome

Cascais, Portugal

latitude: 38-43-32N, longitude: 009-21-19W, elevation: 99 m

Current weather observation

The report was made 26 minutes ago, at 14:00 UTC
Wind 4 kt from the Southeast, varying between East/Northeast and South
Temperature 21°C
Humidity 53%
Pressure 1016 hPa
Visibility 10 km or more
no clouds below 1500 m and no cumulonimbus

METAR: LPCS 141400Z 13004KT 070V180 CAVOK 21/11 Q1016

Time: 14:26 (14:26 UTC)

Forecast

The report was made 3 hours and 26 minutes ago, at 11:00 UTC
Forecast valid from 14 at 12 UTC to 14 at 21 UTC
Wind 8 kt from the East
Visibility 10 km or more
no clouds below 1500 m and no cumulonimbus

TAF: LPCS 141100Z 1412/1421 08008KT CAVOK

Weather observations and forecasts of more than 4000 airports (METAR and TAF reports).

The available stations are represented by yellow and red dots on the map.

Hover mouse over dot to see the name of the station.

Then click to see weather observations and forecasts.

To change the map : click on the green buttons with a black cross to zoom in, on the green button with a dash to zoom out, or on the green arrows for adjacent maps.


METAR-TAF: